Time;durP1;ratioP1;P1;durP2;ratioP2;P2;SDS_P1;SDS_P2;PMS_P1;PMS_P2;Temp;Humidity;BMP_temperature;BMP_pressure;BME280_temperature;BME280_humidity;BME280_pressure;Samples;Min_cycle;Max_cycle;Signal;HPM_P1;HPM_P2
2022/09/16 00:00:54;;;;;;;0.10;0.10;;;13.60;99.90;;;;;;4973308;28;20221;-77
2022/09/16 00:03:22;;;;;;;0.00;0.00;;;13.60;99.90;;;;;;4956562;28;20209;-77
2022/09/16 00:05:51;;;;;;;0.00;0.00;;;13.50;99.90;;;;;;4972862;28;20660;-77
2022/09/16 00:08:20;;;;;;;0.00;0.00;;;13.50;99.90;;;;;;4974940;28;20193;-76
2022/09/16 00:10:49;;;;;;;0.10;0.10;;;13.50;99.90;;;;;;4976437;28;20225;-77
2022/09/16 00:13:17;;;;;;;0.00;0.00;;;13.50;99.90;;;;;;4959307;28;20229;-76
2022/09/16 00:15:50;;;;;;;0.00;0.00;;;13.40;99.90;;;;;;4975791;28;20255;-76
2022/09/16 00:18:19;;;;;;;0.10;0.10;;;13.40;99.90;;;;;;4972571;28;20208;-75
2022/09/16 00:20:49;;;;;;;0.05;0.05;;;13.40;99.90;;;;;;4972543;28;20834;-75
2022/09/16 00:23:17;;;;;;;0.10;0.10;;;13.50;99.90;;;;;;4958360;28;20251;-75
2022/09/16 00:25:50;;;;;;;0.00;0.00;;;13.50;99.90;;;;;;4976176;28;20196;-75
2022/09/16 00:28:18;;;;;;;0.08;0.08;;;13.50;99.90;;;;;;4975695;28;20205;-76
2022/09/16 00:30:47;;;;;;;0.00;0.00;;;13.50;99.90;;;;;;4975440;28;20248;-76
2022/09/16 00:33:15;;;;;;;0.10;0.10;;;13.60;99.90;;;;;;4957430;29;20217;-76
2022/09/16 00:35:43;;;;;;;0.00;0.00;;;13.70;99.90;;;;;;4971734;28;20267;-76
2022/09/16 00:38:11;;;;;;;0.00;0.00;;;13.70;99.90;;;;;;4975689;28;20284;-76
2022/09/16 00:40:45;;;;;;;0.00;0.00;;;13.60;99.90;;;;;;4975861;28;20732;-76
2022/09/16 00:43:14;;;;;;;0.00;0.00;;;13.60;99.90;;;;;;4976443;28;20197;-76
2022/09/16 00:45:45;;;;;;;0.00;0.00;;;13.70;99.90;;;;;;4976012;28;20259;-76
2022/09/16 00:48:22;;;;;;;0.00;0.00;;;13.70;99.90;;;;;;4957030;29;20198;-75
2022/09/16 00:50:53;;;;;;;0.00;0.00;;;13.70;99.90;;;;;;4972151;28;20236;-75
2022/09/16 00:53:25;;;;;;;0.10;0.10;;;13.70;99.90;;;;;;4956862;29;20276;-76
2022/09/16 00:55:54;;;;;;;0.00;0.00;;;13.70;99.90;;;;;;4956364;28;20237;-76
2022/09/16 00:58:28;;;;;;;0.00;0.00;;;13.70;99.90;;;;;;4976046;28;20259;-77
2022/09/16 01:00:56;;;;;;;0.00;0.00;;;13.70;99.90;;;;;;4976319;28;20228;-76
2022/09/16 01:03:27;;;;;;;0.00;0.00;;;13.60;99.90;;;;;;4977335;28;20273;-76
2022/09/16 01:05:55;;;;;;;0.00;0.00;;;13.60;99.90;;;;;;4965236;28;20615;-75
2022/09/16 01:08:23;;;;;;;0.10;0.10;;;13.60;99.90;;;;;;4975859;28;20228;-76
2022/09/16 01:10:51;;;;;;;0.10;0.10;;;13.60;99.90;;;;;;4969708;28;20221;-76
2022/09/16 01:13:19;;;;;;;0.10;0.10;;;13.60;99.90;;;;;;4975073;28;20774;-76
2022/09/16 01:15:57;;;;;;;0.00;0.00;;;13.40;99.90;;;;;;4975257;28;20679;-76
2022/09/16 01:18:31;;;;;;;0.00;0.00;;;13.40;99.90;;;;;;4974700;28;20197;-76
2022/09/16 01:21:20;;;;;;;0.10;0.10;;;13.40;99.90;;;;;;4989532;23;20247;-74
2022/09/16 01:24:30;;;;;;;0.00;0.00;;;13.30;99.90;;;;;;4975676;28;20205;-74
2022/09/16 01:27:24;;;;;;;0.00;0.00;;;13.30;99.90;;;;;;4950614;28;20279;-74
2022/09/16 01:30:13;;;;;;;0.00;0.00;;;13.10;99.90;;;;;;4965907;28;20213;-74
2022/09/16 01:32:53;;;;;;;0.00;0.00;;;13.10;99.90;;;;;;4973290;28;20228;-75
2022/09/16 01:35:29;;;;;;;0.10;0.10;;;13.10;99.90;;;;;;4968846;28;20203;-75
2022/09/16 01:38:09;;;;;;;0.00;0.00;;;13.20;99.90;;;;;;4972164;28;20248;-75
2022/09/16 01:40:48;;;;;;;0.00;0.00;;;13.10;99.90;;;;;;4958862;28;20263;-74
2022/09/16 01:43:21;;;;;;;0.00;0.00;;;13.10;99.90;;;;;;4974917;28;20197;-75
2022/09/16 01:45:55;;;;;;;0.00;0.00;;;13.10;99.90;;;;;;4968308;28;20255;-75
2022/09/16 01:48:28;;;;;;;0.03;0.03;;;13.10;99.90;;;;;;4975257;28;20228;-75
2022/09/16 01:51:01;;;;;;;0.00;0.00;;;13.10;99.90;;;;;;4959351;28;20544;-75
2022/09/16 01:53:34;;;;;;;0.00;0.00;;;13.20;99.90;;;;;;4975221;28;20271;-74
2022/09/16 01:56:08;;;;;;;0.00;0.00;;;13.10;99.90;;;;;;4960273;28;20206;-72
2022/09/16 01:58:41;;;;;;;0.00;0.00;;;13.10;99.90;;;;;;4956502;28;20677;-74
2022/09/16 02:01:14;;;;;;;0.00;0.00;;;13.10;99.90;;;;;;4961872;28;20240;-73
2022/09/16 02:03:49;;;;;;;0.10;0.10;;;13.10;99.90;;;;;;4975035;28;20200;-73
2022/09/16 02:06:21;;;;;;;0.10;0.10;;;13.00;99.90;;;;;;4945779;28;20222;-75
2022/09/16 02:08:55;;;;;;;0.00;0.00;;;13.00;99.90;;;;;;4952500;29;20222;-73
2022/09/16 02:11:24;;;;;;;0.00;0.00;;;13.00;99.90;;;;;;4958055;28;20276;-74
2022/09/16 02:13:57;;;;;;;0.10;0.10;;;13.00;99.90;;;;;;4952881;28;20724;-74
2022/09/16 02:16:32;;;;;;;0.00;0.00;;;13.00;99.90;;;;;;4966100;28;20236;-73
2022/09/16 02:19:09;;;;;;;0.00;0.00;;;13.00;99.90;;;;;;4974695;28;20200;-73
2022/09/16 02:21:39;;;;;;;0.10;0.10;;;12.90;99.90;;;;;;4963053;28;20287;-75
2022/09/16 02:24:16;;;;;;;0.10;0.10;;;13.00;99.90;;;;;;4956403;28;20661;-72
2022/09/16 02:26:48;;;;;;;0.00;0.00;;;12.90;99.90;;;;;;4964069;28;20665;-73
2022/09/16 02:29:20;;;;;;;0.00;0.00;;;12.90;99.90;;;;;;4957769;28;20616;-75
2022/09/16 02:31:49;;;;;;;0.00;0.00;;;12.90;99.90;;;;;;4963218;28;20712;-74
2022/09/16 02:34:26;;;;;;;0.00;0.00;;;12.90;99.90;;;;;;4956209;28;20723;-74
2022/09/16 02:37:01;;;;;;;0.10;0.10;;;13.00;99.90;;;;;;4944774;28;20613;-74
2022/09/16 02:39:32;;;;;;;0.10;0.10;;;12.90;99.90;;;;;;4945380;29;20202;-75
2022/09/16 02:42:01;;;;;;;0.10;0.10;;;13.00;99.90;;;;;;4964547;28;20638;-75
2022/09/16 02:44:29;;;;;;;0.08;0.08;;;13.00;99.90;;;;;;4957973;28;20275;-74
2022/09/16 02:47:01;;;;;;;0.00;0.00;;;13.00;99.90;;;;;;4965551;28;20226;-74
2022/09/16 02:49:40;;;;;;;0.10;0.10;;;13.00;99.90;;;;;;4955359;28;20553;-75
2022/09/16 02:52:16;;;;;;;0.00;0.00;;;13.10;99.90;;;;;;4964073;28;20224;-74
2022/09/16 02:54:51;;;;;;;0.00;0.00;;;13.10;99.90;;;;;;4972496;28;20228;-74
2022/09/16 02:57:19;;;;;;;0.00;0.00;;;13.10;99.90;;;;;;4952921;28;20267;-73
2022/09/16 02:59:47;;;;;;;0.08;0.08;;;13.10;99.90;;;;;;4975027;28;20209;-74
2022/09/16 03:02:15;;;;;;;0.00;0.00;;;13.10;99.90;;;;;;4964050;28;20708;-74
2022/09/16 03:04:45;;;;;;;0.00;0.00;;;13.00;99.90;;;;;;4972269;28;20669;-74
2022/09/16 03:07:14;;;;;;;0.00;0.00;;;13.00;99.90;;;;;;4959650;28;20561;-75
2022/09/16 03:09:45;;;;;;;0.08;0.08;;;13.10;99.90;;;;;;4962867;28;20712;-73
2022/09/16 03:12:26;;;;;;;0.00;0.00;;;13.10;99.90;;;;;;4967923;28;20626;-75
2022/09/16 03:15:32;;;;;;;0.00;0.00;;;13.10;99.90;;;;;;4976681;28;20225;-74
2022/09/16 03:18:25;;;;;;;0.00;0.00;;;13.00;99.90;;;;;;4950616;29;20201;-71
2022/09/16 03:21:00;;;;;;;0.00;0.00;;;13.10;99.90;;;;;;4954218;29;20740;-72
2022/09/16 03:23:43;;;;;;;0.10;0.10;;;13.10;99.90;;;;;;4953059;29;20255;-73
2022/09/16 03:26:22;;;;;;;0.00;0.00;;;13.00;99.90;;;;;;4965459;28;20224;-72
2022/09/16 03:29:00;;;;;;;0.10;0.10;;;13.00;99.90;;;;;;4934930;29;20261;-73
2022/09/16 03:31:31;;;;;;;0.00;0.00;;;13.00;99.90;;;;;;4964931;28;20227;-73
2022/09/16 03:34:06;;;;;;;0.00;0.00;;;13.00;99.90;;;;;;4954625;28;20249;-76
2022/09/16 03:36:41;;;;;;;0.03;0.03;;;13.10;99.90;;;;;;4965452;28;20231;-76
2022/09/16 03:39:10;;;;;;;0.00;0.00;;;13.00;99.90;;;;;;4952946;29;20209;-75
2022/09/16 03:41:39;;;;;;;0.10;0.10;;;12.90;99.90;;;;;;4957739;28;20225;-75
2022/09/16 03:44:06;;;;;;;0.00;0.00;;;12.80;99.90;;;;;;4973147;28;20244;-74
2022/09/16 03:46:34;;;;;;;0.10;0.10;;;12.70;99.90;;;;;;4958028;28;20189;-74
2022/09/16 03:49:02;;;;;;;0.00;0.00;;;12.70;99.90;;;;;;4951397;28;20201;-74
2022/09/16 03:51:30;;;;;;;0.00;0.00;;;12.70;99.90;;;;;;4964831;28;20221;-74
2022/09/16 03:53:59;;;;;;;0.00;0.00;;;12.60;99.90;;;;;;4953680;28;20312;-73
2022/09/16 03:56:27;;;;;;;0.10;0.10;;;12.70;99.90;;;;;;4957436;28;20209;-74
2022/09/16 03:58:55;;;;;;;0.00;0.00;;;12.70;99.90;;;;;;4952586;28;20206;-74
2022/09/16 04:01:23;;;;;;;0.00;0.00;;;12.70;99.90;;;;;;4959271;28;20225;-74
2022/09/16 04:03:51;;;;;;;0.00;0.00;;;12.70;99.90;;;;;;4939501;28;20206;-74
2022/09/16 04:06:19;;;;;;;0.10;0.10;;;12.70;99.90;;;;;;4947575;28;20210;-75
2022/09/16 04:08:49;;;;;;;0.00;0.00;;;12.80;99.90;;;;;;4940697;29;20876;-73
2022/09/16 04:11:18;;;;;;;0.00;0.00;;;12.70;99.90;;;;;;4950467;28;20640;-73
2022/09/16 04:13:46;;;;;;;0.08;0.08;;;12.80;99.90;;;;;;4968808;28;20744;-73
2022/09/16 04:16:19;;;;;;;0.00;0.00;;;12.70;99.90;;;;;;4948160;28;20260;-73
2022/09/16 04:18:48;;;;;;;0.00;0.00;;;12.70;99.90;;;;;;4965804;28;20224;-72
2022/09/16 04:21:16;;;;;;;0.00;0.00;;;12.70;99.90;;;;;;4958020;28;20229;-74
2022/09/16 04:23:45;;;;;;;0.00;0.00;;;12.70;99.90;;;;;;4955648;28;20272;-74
2022/09/16 04:26:12;;;;;;;0.00;0.00;;;12.70;99.90;;;;;;4962721;28;20605;-73
2022/09/16 04:28:42;;;;;;;0.10;0.10;;;12.60;99.90;;;;;;4955181;28;20217;-74
2022/09/16 04:31:11;;;;;;;0.00;0.00;;;12.60;99.90;;;;;;4957146;28;20642;-74
2022/09/16 04:33:40;;;;;;;0.03;0.03;;;12.60;99.90;;;;;;4954331;28;20226;-75
2022/09/16 04:36:11;;;;;;;0.00;0.00;;;12.50;99.90;;;;;;4968739;28;20298;-74
2022/09/16 04:38:40;;;;;;;0.00;0.00;;;12.60;99.90;;;;;;4970755;28;20230;-74
2022/09/16 04:41:10;;;;;;;0.00;0.00;;;12.60;99.90;;;;;;4975873;28;20248;-74
2022/09/16 04:43:38;;;;;;;0.10;0.10;;;12.60;99.90;;;;;;4982227;28;20201;-75
2022/09/16 04:46:08;;;;;;;0.00;0.00;;;12.60;99.90;;;;;;4975050;28;20205;-75
2022/09/16 04:48:36;;;;;;;0.10;0.10;;;12.60;99.90;;;;;;4962676;28;20196;-74
2022/09/16 04:51:07;;;;;;;0.00;0.00;;;12.60;99.90;;;;;;4943969;28;20299;-74
2022/09/16 04:53:35;;;;;;;0.10;0.10;;;12.60;99.90;;;;;;4973485;28;20205;-74
2022/09/16 04:56:05;;;;;;;0.00;0.00;;;12.60;99.90;;;;;;4962352;28;20230;-74
2022/09/16 04:58:33;;;;;;;0.05;0.05;;;12.60;99.90;;;;;;4973361;28;20201;-73
2022/09/16 05:01:05;;;;;;;0.10;0.10;;;12.60;99.90;;;;;;4969335;28;20596;-75
2022/09/16 05:03:34;;;;;;;0.00;0.00;;;12.60;99.90;;;;;;4952621;29;20212;-73
2022/09/16 05:06:08;;;;;;;0.10;0.10;;;12.60;99.90;;;;;;4939429;29;20198;-74
2022/09/16 05:08:36;;;;;;;0.00;0.00;;;12.50;99.90;;;;;;4953674;28;20221;-73
2022/09/16 05:11:05;;;;;;;0.05;0.05;;;12.50;99.90;;;;;;4970972;28;20225;-74
2022/09/16 05:13:34;;;;;;;0.00;0.00;;;12.60;99.90;;;;;;4949463;28;20197;-73
2022/09/16 05:16:04;;;;;;;0.10;0.10;;;12.50;99.90;;;;;;4957271;28;20269;-75
2022/09/16 05:18:33;;;;;;;0.00;0.00;;;12.60;99.90;;;;;;4956993;28;20202;-75
2022/09/16 05:21:03;;;;;;;0.00;0.00;;;12.60;99.90;;;;;;4956330;28;20221;-73
2022/09/16 05:23:32;;;;;;;0.00;0.00;;;12.70;99.90;;;;;;4945559;28;20666;-75
2022/09/16 05:26:03;;;;;;;0.00;0.00;;;12.70;99.90;;;;;;4951395;29;20205;-74
2022/09/16 05:28:32;;;;;;;0.00;0.00;;;12.70;99.90;;;;;;4954881;28;20194;-73
2022/09/16 05:31:08;;;;;;;0.08;0.08;;;12.60;99.90;;;;;;4948852;28;20234;-75
2022/09/16 05:33:38;;;;;;;0.00;0.00;;;12.60;99.90;;;;;;4960605;28;20664;-75
2022/09/16 05:36:07;;;;;;;0.10;0.10;;;12.60;99.90;;;;;;4974988;28;20264;-75
2022/09/16 05:38:35;;;;;;;0.00;0.00;;;12.60;99.90;;;;;;4964184;28;20225;-74
2022/09/16 05:41:04;;;;;;;0.00;0.00;;;12.60;99.90;;;;;;4955200;28;20230;-75
2022/09/16 05:43:33;;;;;;;0.00;0.00;;;12.60;99.90;;;;;;4961126;28;20197;-75
2022/09/16 05:46:02;;;;;;;0.00;0.00;;;12.60;99.90;;;;;;4951105;28;20541;-74
2022/09/16 05:48:30;;;;;;;0.10;0.10;;;12.60;99.90;;;;;;4969042;28;20212;-74
2022/09/16 05:51:01;;;;;;;0.10;0.10;;;12.60;99.90;;;;;;4948923;28;20680;-75
2022/09/16 05:53:30;;;;;;;0.00;0.00;;;12.60;99.90;;;;;;4968880;28;20205;-74
2022/09/16 05:56:00;;;;;;;0.00;0.00;;;12.60;99.90;;;;;;4962953;28;20229;-74
2022/09/16 05:58:30;;;;;;;0.10;0.10;;;12.70;99.90;;;;;;4955800;29;20612;-75
2022/09/16 06:01:01;;;;;;;0.00;0.00;;;12.60;99.90;;;;;;4955124;28;20264;-75
2022/09/16 06:03:29;;;;;;;0.00;0.00;;;12.50;99.90;;;;;;4962012;28;20214;-75
2022/09/16 06:06:02;;;;;;;0.00;0.00;;;12.60;99.90;;;;;;4953630;28;20347;-75
2022/09/16 06:08:33;;;;;;;0.03;0.03;;;12.60;99.90;;;;;;4951062;29;20257;-75
2022/09/16 06:11:01;;;;;;;0.10;0.10;;;12.70;99.90;;;;;;4953564;28;20296;-75
2022/09/16 06:13:29;;;;;;;0.10;0.10;;;12.70;99.90;;;;;;4953606;29;20221;-75
2022/09/16 06:15:58;;;;;;;0.10;0.10;;;12.70;99.90;;;;;;4952737;28;20256;-75
2022/09/16 06:18:28;;;;;;;0.00;0.00;;;12.70;99.90;;;;;;4954939;28;20201;-76
2022/09/16 06:20:56;;;;;;;0.00;0.00;;;12.70;99.90;;;;;;4954325;28;20551;-73
2022/09/16 06:23:25;;;;;;;0.00;0.00;;;12.70;99.90;;;;;;4954056;29;20206;-74
2022/09/16 06:26:00;;;;;;;0.00;0.00;;;12.80;99.90;;;;;;4954900;28;20567;-74
2022/09/16 06:28:27;;;;;;;0.00;0.00;;;12.90;99.90;;;;;;4955039;29;20673;-74
2022/09/16 06:31:04;;;;;;;0.10;0.10;;;12.80;99.90;;;;;;4954868;28;20205;-74
2022/09/16 06:33:32;;;;;;;0.00;0.00;;;12.90;99.90;;;;;;4955407;29;20225;-74
2022/09/16 06:36:03;;;;;;;0.00;0.00;;;13.00;99.90;;;;;;4955464;28;20230;-74
2022/09/16 06:38:32;;;;;;;0.03;0.03;;;13.00;99.90;;;;;;4954673;29;20261;-73
2022/09/16 06:41:01;;;;;;;0.10;0.10;;;13.00;99.90;;;;;;4958002;28;20249;-73
2022/09/16 06:43:29;;;;;;;0.08;0.08;;;13.10;99.90;;;;;;4954992;29;20241;-73
2022/09/16 06:45:58;;;;;;;0.00;0.00;;;13.10;99.90;;;;;;4954748;28;20193;-74
2022/09/16 06:48:27;;;;;;;0.00;0.00;;;13.10;99.90;;;;;;4954496;28;20198;-74
2022/09/16 06:50:59;;;;;;;0.10;0.10;;;13.20;99.90;;;;;;4954464;28;20666;-74
2022/09/16 06:53:27;;;;;;;0.10;0.10;;;13.10;99.90;;;;;;4954987;28;20190;-74
2022/09/16 06:56:00;;;;;;;0.00;0.00;;;13.20;99.90;;;;;;4954882;28;20225;-74
2022/09/16 06:58:29;;;;;;;0.00;0.00;;;13.10;99.90;;;;;;4954382;28;20759;-73
2022/09/16 07:00:57;;;;;;;0.10;0.10;;;13.10;99.90;;;;;;4964835;28;20202;-73
2022/09/16 07:03:25;;;;;;;0.10;0.10;;;13.10;99.90;;;;;;4955177;28;20225;-73
2022/09/16 07:05:57;;;;;;;0.10;0.10;;;13.00;99.90;;;;;;4954714;29;20245;-73
2022/09/16 07:08:25;;;;;;;0.10;0.10;;;13.10;99.90;;;;;;4954328;28;20206;-73
2022/09/16 07:11:01;;;;;;;0.00;0.00;;;13.10;99.90;;;;;;4957042;28;20605;-74
2022/09/16 07:13:30;;;;;;;0.00;0.00;;;13.30;99.90;;;;;;4965654;28;20213;-74
2022/09/16 07:15:59;;;;;;;0.05;0.05;;;13.40;99.90;;;;;;4966252;28;20295;-74
2022/09/16 07:18:42;;;;;;;0.10;0.10;;;13.40;99.90;;;;;;4957965;28;20213;-73
2022/09/16 07:21:18;;;;;;;0.03;0.03;;;13.50;99.90;;;;;;4953780;29;20237;-74
2022/09/16 07:23:47;;;;;;;0.10;0.10;;;13.50;99.90;;;;;;4950738;28;20217;-76
2022/09/16 07:26:18;;;;;;;0.00;0.00;;;13.50;99.90;;;;;;4953890;29;20574;-76
2022/09/16 07:28:47;;;;;;;0.05;0.05;;;13.60;99.90;;;;;;4951811;28;20238;-77
2022/09/16 07:31:17;;;;;;;0.00;0.00;;;13.70;99.90;;;;;;4945390;28;20206;-77
2022/09/16 07:33:47;;;;;;;0.00;0.00;;;13.60;99.90;;;;;;4955120;28;20213;-76
2022/09/16 07:36:17;;;;;;;0.10;0.10;;;13.60;99.90;;;;;;4973107;28;20291;-76
2022/09/16 07:38:45;;;;;;;0.05;0.05;;;13.60;99.90;;;;;;4972374;28;20205;-77
2022/09/16 07:41:17;;;;;;;0.00;0.00;;;13.50;99.90;;;;;;4956371;28;20664;-76
2022/09/16 07:43:45;;;;;;;0.10;0.10;;;13.50;99.90;;;;;;4958598;28;20205;-76
2022/09/16 07:46:16;;;;;;;0.00;0.00;;;13.60;99.90;;;;;;4955146;28;20205;-76
2022/09/16 07:48:45;;;;;;;0.10;0.10;;;13.60;99.90;;;;;;4950329;29;20611;-76
2022/09/16 07:51:16;;;;;;;0.10;0.10;;;13.60;99.90;;;;;;4948066;29;20225;-76
2022/09/16 07:53:44;;;;;;;0.00;0.00;;;13.80;99.90;;;;;;4948023;29;20199;-76
2022/09/16 07:56:15;;;;;;;0.00;0.00;;;13.80;99.90;;;;;;4947554;29;20238;-76
2022/09/16 07:58:45;;;;;;;0.00;0.00;;;13.80;99.90;;;;;;4946674;29;20197;-77
2022/09/16 08:01:14;;;;;;;0.00;0.00;;;13.60;99.90;;;;;;4953850;29;20615;-76
2022/09/16 08:03:43;;;;;;;0.10;0.10;;;13.70;99.90;;;;;;4967269;28;20214;-76
2022/09/16 08:06:13;;;;;;;0.10;0.10;;;13.70;99.90;;;;;;4940655;29;20210;-75
2022/09/16 08:08:41;;;;;;;0.00;0.00;;;13.70;99.90;;;;;;4942907;29;20205;-76
2022/09/16 08:11:11;;;;;;;0.10;0.10;;;13.70;99.90;;;;;;4956771;28;20214;-76
2022/09/16 08:13:39;;;;;;;0.10;0.10;;;13.80;99.90;;;;;;4950995;29;20669;-75
2022/09/16 08:16:10;;;;;;;0.10;0.10;;;13.90;99.90;;;;;;4968585;28;20288;-76
2022/09/16 08:18:39;;;;;;;0.00;0.00;;;14.00;99.90;;;;;;4952553;29;20260;-76
2022/09/16 08:21:07;;;;;;;0.00;0.00;;;14.00;99.90;;;;;;4953044;29;20288;-76
2022/09/16 08:23:36;;;;;;;0.00;0.00;;;13.90;99.90;;;;;;4967318;28;20352;-76
2022/09/16 08:26:07;;;;;;;0.00;0.00;;;13.90;99.90;;;;;;4953406;28;20279;-76
2022/09/16 08:28:36;;;;;;;0.00;0.00;;;13.90;99.90;;;;;;4967046;28;20216;-76
2022/09/16 08:31:25;;;;;;;0.00;0.00;;;14.00;99.90;;;;;;4949054;29;20210;-76
2022/09/16 08:33:54;;;;;;;0.00;0.00;;;14.00;99.90;;;;;;4954163;28;20202;-75
2022/09/16 08:36:25;;;;;;;0.10;0.10;;;14.00;99.90;;;;;;4961015;28;20284;-76
2022/09/16 08:38:56;;;;;;;0.00;0.00;;;14.00;99.90;;;;;;4953052;29;20190;-76
2022/09/16 08:41:42;;;;;;;0.00;0.00;;;14.10;99.90;;;;;;4951583;29;20293;-76
2022/09/16 08:44:17;;;;;;;0.05;0.05;;;14.30;99.90;;;;;;4949929;29;20225;-76
2022/09/16 08:46:51;;;;;;;0.00;0.00;;;14.40;99.90;;;;;;4947158;29;20201;-77
2022/09/16 08:49:33;;;;;;;0.10;0.10;;;14.60;99.90;;;;;;4951252;28;20209;-76
2022/09/16 08:52:08;;;;;;;0.00;0.00;;;14.70;99.90;;;;;;4952255;28;20430;-76
2022/09/16 08:54:42;;;;;;;0.00;0.00;;;14.70;99.90;;;;;;4957984;29;20753;-76
2022/09/16 08:57:15;;;;;;;0.00;0.00;;;14.80;99.90;;;;;;4956033;29;20700;-76
2022/09/16 08:59:47;;;;;;;0.00;0.00;;;14.70;99.90;;;;;;4946391;29;21260;-76
2022/09/16 09:02:39;;;;;;;0.00;0.00;;;14.60;99.90;;;;;;4937993;29;20222;-76
2022/09/16 09:05:17;;;;;;;0.00;0.00;;;14.70;99.90;;;;;;4941583;29;20256;-75
2022/09/16 09:08:10;;;;;;;0.00;0.00;;;14.60;99.90;;;;;;4960971;28;20727;-76
2022/09/16 09:10:48;;;;;;;0.00;0.00;;;14.50;99.90;;;;;;4956192;28;20682;-75
2022/09/16 09:13:28;;;;;;;0.10;0.10;;;14.70;99.90;;;;;;4945121;29;20229;-76
2022/09/16 09:16:00;;;;;;;0.00;0.00;;;14.70;99.90;;;;;;4951043;28;20254;-75
2022/09/16 09:18:40;;;;;;;0.00;0.00;;;14.70;99.90;;;;;;4948396;29;20233;-75
2022/09/16 09:21:18;;;;;;;0.00;0.00;;;14.80;99.90;;;;;;4960805;28;20204;-76
2022/09/16 09:24:05;;;;;;;0.00;0.00;;;14.60;99.90;;;;;;4958750;28;20206;-75
2022/09/16 09:26:41;;;;;;;0.00;0.00;;;14.50;99.90;;;;;;4947770;29;20216;-75
2022/09/16 09:29:47;;;;;;;0.00;0.00;;;14.40;99.90;;;;;;4946246;29;20260;-75
2022/09/16 09:32:23;;;;;;;0.00;0.00;;;14.40;99.90;;;;;;4955601;28;20233;-75
2022/09/16 09:35:15;;;;;;;0.10;0.10;;;14.20;99.90;;;;;;4962040;28;20205;-75
2022/09/16 09:37:59;;;;;;;0.08;0.08;;;14.30;99.90;;;;;;4968069;28;20225;-75
2022/09/16 09:40:33;;;;;;;0.00;0.00;;;14.50;99.90;;;;;;4967590;28;20197;-75
2022/09/16 09:43:09;;;;;;;0.00;0.00;;;14.70;99.90;;;;;;4950507;29;20235;-75
2022/09/16 09:45:40;;;;;;;0.03;0.03;;;14.70;99.90;;;;;;4963260;28;20205;-75
2022/09/16 09:48:18;;;;;;;0.00;0.00;;;14.70;99.90;;;;;;4969257;28;20204;-76
2022/09/16 09:50:48;;;;;;;0.00;0.00;;;14.60;99.90;;;;;;4954409;29;20202;-75
2022/09/16 09:53:22;;;;;;;0.00;0.00;;;14.40;99.90;;;;;;4952884;29;20225;-76
2022/09/16 09:55:58;;;;;;;0.00;0.00;;;14.00;99.90;;;;;;4951298;28;20245;-76
2022/09/16 09:58:33;;;;;;;0.00;0.00;;;13.90;99.90;;;;;;4954270;29;20229;-75
2022/09/16 10:01:01;;;;;;;0.00;0.00;;;13.60;99.90;;;;;;4966797;28;20584;-76
2022/09/16 10:03:30;;;;;;;0.00;0.00;;;13.40;99.90;;;;;;4974583;28;20229;-76
2022/09/16 10:05:59;;;;;;;0.00;0.00;;;13.40;99.90;;;;;;4963981;28;20236;-75
2022/09/16 10:08:32;;;;;;;0.10;0.10;;;13.40;99.90;;;;;;4974357;28;20193;-76
2022/09/16 10:11:02;;;;;;;0.10;0.10;;;13.60;99.90;;;;;;4965599;28;20688;-76
2022/09/16 10:13:31;;;;;;;0.10;0.10;;;13.90;99.90;;;;;;4954854;29;20222;-76
2022/09/16 10:16:09;;;;;;;0.00;0.00;;;14.00;99.90;;;;;;4965611;28;20252;-76
2022/09/16 10:18:37;;;;;;;0.00;0.00;;;14.30;99.90;;;;;;4956744;28;20323;-76
2022/09/16 10:21:10;;;;;;;0.00;0.00;;;14.40;99.90;;;;;;4963122;28;20707;-76
2022/09/16 10:23:38;;;;;;;0.00;0.00;;;14.60;99.90;;;;;;4954730;29;20526;-76
2022/09/16 10:26:17;;;;;;;0.00;0.00;;;14.80;99.90;;;;;;4959307;28;20621;-76
2022/09/16 10:28:59;;;;;;;0.00;0.00;;;14.90;99.90;;;;;;4958384;28;20204;-76
2022/09/16 10:31:30;;;;;;;0.00;0.00;;;15.00;99.90;;;;;;4953581;29;20205;-75
2022/09/16 10:34:05;;;;;;;0.00;0.00;;;15.20;99.90;;;;;;4954631;29;20201;-75
2022/09/16 10:36:35;;;;;;;0.05;0.05;;;15.20;99.90;;;;;;4965671;28;20198;-76
2022/09/16 10:39:04;;;;;;;0.00;0.00;;;15.30;99.90;;;;;;4946411;29;20260;-75
2022/09/16 10:41:34;;;;;;;0.00;0.00;;;15.60;99.90;;;;;;4965839;28;20241;-76
2022/09/16 10:44:06;;;;;;;0.00;0.00;;;15.70;99.90;;;;;;4949915;29;20684;-75
2022/09/16 10:46:34;;;;;;;0.00;0.00;;;15.70;99.90;;;;;;4945790;29;20210;-75
2022/09/16 10:49:10;;;;;;;0.00;0.00;;;15.60;99.90;;;;;;4946805;29;20291;-75
2022/09/16 10:51:39;;;;;;;0.00;0.00;;;15.60;99.90;;;;;;4949137;29;20223;-76
2022/09/16 10:54:26;;;;;;;0.00;0.00;;;15.70;99.90;;;;;;4947391;29;20752;-76
2022/09/16 10:56:55;;;;;;;0.00;0.00;;;15.80;99.90;;;;;;4945447;29;20201;-75
2022/09/16 10:59:23;;;;;;;0.00;0.00;;;16.00;99.90;;;;;;4947886;29;20634;-76
2022/09/16 11:02:00;;;;;;;0.00;0.00;;;16.30;99.90;;;;;;4972054;28;20256;-75
2022/09/16 11:04:48;;;;;;;0.00;0.00;;;16.70;99.90;;;;;;4965737;28;20241;-75
2022/09/16 11:07:30;;;;;;;0.00;0.00;;;16.80;99.90;;;;;;4949281;28;20209;-75
2022/09/16 11:10:04;;;;;;;0.00;0.00;;;16.80;99.90;;;;;;4936843;29;20264;-75
2022/09/16 11:12:47;;;;;;;0.00;0.00;;;16.60;99.90;;;;;;4949667;29;20212;-75
2022/09/16 11:15:27;;;;;;;0.00;0.00;;;16.60;99.90;;;;;;4954807;28;20206;-76
2022/09/16 11:18:10;;;;;;;0.00;0.00;;;16.50;99.90;;;;;;4939297;29;20261;-76
2022/09/16 11:20:52;;;;;;;0.00;0.00;;;16.20;99.90;;;;;;4958689;28;20200;-75
2022/09/16 11:23:34;;;;;;;0.00;0.00;;;15.90;99.90;;;;;;4968557;28;20228;-76
2022/09/16 11:26:10;;;;;;;0.00;0.00;;;15.90;99.90;;;;;;4938327;29;20789;-77
2022/09/16 11:28:58;;;;;;;0.00;0.00;;;15.80;99.90;;;;;;4953745;29;20287;-77
2022/09/16 11:31:39;;;;;;;0.00;0.00;;;15.90;99.90;;;;;;4953551;29;20253;-76
2022/09/16 11:34:15;;;;;;;0.00;0.00;;;16.20;99.90;;;;;;4954069;29;20217;-76
2022/09/16 11:36:55;;;;;;;0.00;0.00;;;16.40;99.90;;;;;;4971324;28;20204;-77
2022/09/16 11:39:47;;;;;;;0.00;0.00;;;16.80;99.90;;;;;;4945816;29;20252;-76
2022/09/16 11:42:22;;;;;;;0.00;0.00;;;16.80;99.90;;;;;;4954997;29;20647;-76
2022/09/16 11:44:57;;;;;;;0.00;0.00;;;17.00;99.90;;;;;;4969566;28;20239;-76
2022/09/16 11:47:42;;;;;;;0.00;0.00;;;17.20;99.90;;;;;;4972912;28;20193;-76
2022/09/16 11:50:22;;;;;;;0.00;0.00;;;17.50;99.90;;;;;;4944845;28;20210;-75
2022/09/16 11:53:08;;;;;;;0.00;0.00;;;17.90;99.90;;;;;;4944659;29;20226;-76
2022/09/16 11:55:50;;;;;;;0.00;0.00;;;18.20;99.90;;;;;;4942840;29;20201;-76
2022/09/16 11:58:26;;;;;;;0.00;0.00;;;18.50;99.90;;;;;;4945982;29;20252;-75
2022/09/16 12:00:58;;;;;;;0.00;0.00;;;18.70;99.90;;;;;;4955875;28;20201;-76
2022/09/16 12:03:31;;;;;;;0.00;0.00;;;18.60;99.90;;;;;;4972772;28;20644;-75
2022/09/16 12:06:06;;;;;;;0.00;0.00;;;18.60;99.90;;;;;;4960681;28;20228;-76
2022/09/16 12:08:44;;;;;;;0.00;0.00;;;19.00;99.90;;;;;;4952977;29;20200;-75
2022/09/16 12:11:19;;;;;;;0.00;0.00;;;19.20;99.90;;;;;;4946604;29;20240;-75
2022/09/16 12:13:52;;;;;;;0.00;0.00;;;19.20;99.90;;;;;;4973112;28;20209;-75
2022/09/16 12:16:38;;;;;;;0.00;0.00;;;18.40;99.90;;;;;;4973486;28;20210;-75
2022/09/16 12:19:13;;;;;;;0.00;0.00;;;17.70;99.90;;;;;;4948838;29;20222;-75
2022/09/16 12:21:48;;;;;;;0.00;0.00;;;17.40;99.90;;;;;;4966143;28;20236;-75
2022/09/16 12:24:23;;;;;;;0.00;0.00;;;17.20;99.90;;;;;;4976101;28;20189;-76
2022/09/16 12:26:59;;;;;;;0.00;0.00;;;17.00;99.90;;;;;;4963527;28;20272;-76
2022/09/16 12:29:33;;;;;;;0.00;0.00;;;16.60;99.90;;;;;;4966627;28;20566;-76
2022/09/16 12:32:05;;;;;;;0.00;0.00;;;16.50;99.90;;;;;;4974441;28;20275;-73
2022/09/16 12:34:37;;;;;;;0.00;0.00;;;16.40;99.90;;;;;;4953427;29;20198;-77
2022/09/16 12:37:22;;;;;;;0.10;0.10;;;16.30;99.90;;;;;;4945745;29;20228;-77
2022/09/16 12:39:50;;;;;;;0.00;0.00;;;16.40;99.90;;;;;;4960932;28;20260;-77
2022/09/16 12:42:46;;;;;;;0.00;0.00;;;16.40;99.90;;;;;;4953069;29;20225;-77
2022/09/16 12:45:40;;;;;;;0.00;0.00;;;16.70;99.90;;;;;;4948932;29;20214;-77
2022/09/16 12:48:30;;;;;;;0.00;0.00;;;16.90;99.90;;;;;;4947661;28;20217;-77
2022/09/16 12:51:10;;;;;;;0.00;0.00;;;17.00;99.90;;;;;;4958556;28;20638;-77
2022/09/16 12:54:08;;;;;;;0.00;0.00;;;17.10;99.90;;;;;;4953439;28;20221;-76
2022/09/16 12:56:50;;;;;;;0.00;0.00;;;17.10;99.90;;;;;;4953113;29;20604;-77
2022/09/16 12:59:52;;;;;;;0.00;0.00;;;16.50;99.90;;;;;;4965841;28;20245;-75
2022/09/16 13:02:23;;;;;;;0.00;0.00;;;16.30;99.90;;;;;;4934172;29;20214;-76
2022/09/16 13:04:54;;;;;;;0.00;0.00;;;16.20;99.90;;;;;;4948480;29;20214;-76
2022/09/16 13:07:24;;;;;;;0.00;0.00;;;15.90;99.90;;;;;;4966602;28;20205;-75
2022/09/16 13:10:02;;;;;;;0.00;0.00;;;15.70;99.90;;;;;;4956004;28;20617;-75
2022/09/16 13:12:31;;;;;;;0.00;0.00;;;15.60;99.90;;;;;;4939651;28;20225;-75
2022/09/16 13:15:24;;;;;;;0.00;0.00;;;15.30;99.90;;;;;;4945325;29;20296;-75
2022/09/16 13:17:53;;;;;;;0.00;0.00;;;15.10;99.90;;;;;;4958563;28;20251;-75
2022/09/16 13:20:27;;;;;;;0.00;0.00;;;15.00;99.90;;;;;;4952850;29;20221;-76